Aérodrome :
LOGIN :

S'inscrire | Disclaimer

   EN    FR    IT 

 










Légende :    VFR   VFR Marginal   IFR   IFR Intensif   IFR Très Intensif
Visi : 
Plafond : 
>= 8 km
>= 3000ft
5 à 8 km
1000 à 3000 ft
1500m à 5 km
500 à 1000 ft
800 à 1500m
200 à 500 ft
< 800m
< 200 ft
Symboles :   Orages  Brouillard  Fortes neiges  Fortes précipitations  Vent > 20 kt
SIGMETs :   Divers  Orages  Givrage  Turbulence  Onde Orograph.  Cendres Volcan.







- Altitude de l'aérodrome : 433 ft
- Code IATA : CCF
- Voir les cartes d'approche


LFMK - Carcassonne

DERNIER METAR :
  • 212200Z AUTO 28007KT 9999 FEW052 BKN062 22/17 Q1014

METARs EXPIRÉS :
  • 212130Z AUTO 28007KT 240V300 9999 BKN047 BKN062 22/17 Q1014
  • 212100Z AUTO 28007KT 9999 FEW052 BKN064 22/17 Q1013
  • 212030Z AUTO 29007KT 9999 SCT050 BKN064 22/17 Q1013
  • 212000Z AUTO 30006KT 9999 FEW050 BKN062 22/17 Q1013
  • 211930Z AUTO 30008KT CAVOK 23/17 Q1012

TAF TAF LFMK
Valide du 21 à 15h jusqu'au 22 à 15h UTC


211400Z 2115/2215 VRB03KT CAVOK
TEMPO 2115/2120 28010KT SCT015 BKN040TCU
PROB30
TEMPO 2115/2118 SHRA
BECMG 2204/2206 CAVOK
Pas de NOTAMs connus pour ce terrain.



MET'MAP, la Météo Aéronautique d'un coup d'oeil ! - Copyright ORBIFLY Décembre 2007 - Disclaimer

ORBIFLY MET'MAP TEAM :

Programmation & Développement : Alexandra Zaïnal
Conception & Développement : Baudouin d'Aumeries
Co-Programmation & Développement : Marc-Olivier Méhu
Soutien technique & logistique : Manuel Goepfert

Contact : metmap@orbifly.com




SOURCES & CREDITS :

   NOAA